Airfield :
LOGIN :

Register | Disclaimer

   EN    FR    IT 

 










Legend :    VFR   Marginal VFR   IFR   Intensive IFR   Very Intensive IFR
Visi :
Ceiling :
>= 8 km
>= 3000ft
5 to 8 km
1000 to 3000 ft
1500m to 5 km
500 to 1000 ft
800 to 1500m
200 to 500 ft
< 800m
< 200 ft
Symbols :   Thunderstorms  Fog  Heavy snow  Heavy precipitations  Wind > 20 kt
SIGMETs :     Misc.  Thunderstorms  Icing  Turbulence  Mountain Waves  Volcanic Ashes






- Airport Elevation : 27 ft
- IATA code : PMI


LEPA - Palma de Mallorca

CURRENT METAR :
  • 211530Z 22012KT 170V250 9999 FEW016 FEW025CB 23/17 Q1013 NOSIG

EXPIRED METARs :
  • 211500Z 22011KT 190V250 9999 FEW016 FEW025CB 23/17 Q1013 NOSIG
  • 211430Z 21010KT 180V250 9999 FEW016 FEW025CB 23/18 Q1013 NOSIG
  • 211400Z 21013KT 190V250 9999 FEW016 FEW025CB 23/18 Q1013 NOSIG
  • 211330Z 22014KT 9999 FEW016 FEW025CB 23/18 Q1013 NOSIG
  • 211300Z 21013KT 170V250 9999 FEW016 FEW025CB 24/18 Q1013 NOSIG
  • 211230Z 22013KT 9999 FEW016 FEW030CB 23/18 Q1013 NOSIG
  • 211200Z 23011KT 200V260 9999 FEW016 FEW030CB 24/17 Q1013 NOSIG
  • 211130Z 23008KT 150V280 9999 FEW016 FEW030CB 23/16 Q1013 NOSIG
  • 211100Z 22011KT 180V260 9999 FEW016 FEW030CB 23/17 Q1014 NOSIG

TAF AMD TAF LEPA
Valid from the 21 at 13:00 until the 22 at 12:00 UTC


211348Z 2113/2212 20012KT 9999 FEW020 TX22/2212Z TN13/2206Z
TEMPO 2113/2116 3000 SHRA TSRA FEW025TCU FEW030CB
BECMG 2120/2122 VRB04KT
TEMPO 2202/2205 3000 BR
PROB30
TEMPO 2209/2212 22010KT



MET'MAP, your aeronautical weather chart ! - Copyright ORBIFLY December 2007 - Disclaimer

ORBIFLY MET'MAP TEAM :

Programming & Development : Alexandra Zaïnal
Original concept : Baudouin d'Aumeries
Technical & hardware support : Manuel Goepfert
Assistance : Marc-Olivier Méhu




SOURCES & CREDITS :

   NOAA